createdAt,value
2023-12-14T00:00:08.198Z,5.20
2023-12-14T00:02:36.026Z,5.40
2023-12-14T00:05:03.297Z,5.30
2023-12-14T00:09:57.129Z,5.10
2023-12-14T00:12:23.842Z,5.10
2023-12-14T00:14:50.677Z,5.20
2023-12-14T00:17:17.456Z,5.30
2023-12-14T00:19:44.831Z,5.30
2023-12-14T00:22:11.535Z,5.10
2023-12-14T00:24:38.250Z,4.70
2023-12-14T00:27:05.582Z,5.20
2023-12-14T00:29:32.381Z,5.00
2023-12-14T00:31:59.150Z,5.10
2023-12-14T00:34:26.062Z,5.00
2023-12-14T00:36:53.448Z,5.00
2023-12-14T00:39:20.126Z,4.90
2023-12-14T00:41:46.880Z,4.80
2023-12-14T00:44:13.658Z,5.00
2023-12-14T00:46:41.959Z,4.80
2023-12-14T00:49:08.864Z,4.90
2023-12-14T00:54:03.360Z,4.80
2023-12-14T00:56:30.096Z,4.80
2023-12-14T00:58:57.024Z,4.90
2023-12-14T01:01:24.422Z,4.80
2023-12-14T01:03:51.127Z,4.60
2023-12-14T01:06:17.868Z,4.80
2023-12-14T01:08:44.688Z,4.70
2023-12-14T01:11:12.293Z,4.90
2023-12-14T01:13:39.060Z,4.70
2023-12-14T01:16:06.395Z,4.80
2023-12-14T01:18:33.272Z,4.90
2023-12-14T01:21:00.065Z,4.90
2023-12-14T01:23:26.779Z,4.40
2023-12-14T01:25:53.462Z,4.20
2023-12-14T01:28:20.871Z,5.50
2023-12-14T01:30:47.612Z,4.60
2023-12-14T01:33:14.634Z,4.70
2023-12-14T01:35:41.556Z,4.60
2023-12-14T01:38:08.411Z,4.80
2023-12-14T01:40:35.133Z,5.80
2023-12-14T01:43:09.103Z,4.70
2023-12-14T01:45:36.680Z,4.70
2023-12-14T01:48:03.744Z,4.80
2023-12-14T01:50:30.536Z,4.20
2023-12-14T01:52:57.322Z,5.20
2023-12-14T01:55:24.210Z,4.30
2023-12-14T01:57:50.880Z,4.70
2023-12-14T02:00:24.590Z,5.10
2023-12-14T02:02:52.702Z,3.70
2023-12-14T02:05:19.646Z,4.70
2023-12-14T02:07:46.503Z,5.70
2023-12-14T02:10:13.308Z,4.70
2023-12-14T02:12:40.286Z,4.50
2023-12-14T02:15:07.828Z,4.60
2023-12-14T02:17:34.567Z,4.50
2023-12-14T02:20:02.036Z,4.60
2023-12-14T02:22:28.875Z,4.80
2023-12-14T02:24:56.315Z,4.50
2023-12-14T02:27:22.957Z,4.60
2023-12-14T02:29:49.576Z,4.50
2023-12-14T02:32:16.337Z,4.70
2023-12-14T02:34:43.122Z,4.50
2023-12-14T02:37:09.853Z,4.30
2023-12-14T02:39:36.779Z,4.50
2023-12-14T02:42:04.355Z,4.40
2023-12-14T02:44:31.009Z,4.00
2023-12-14T02:46:57.803Z,4.00
2023-12-14T02:49:24.588Z,4.50
2023-12-14T02:51:51.305Z,4.40
2023-12-14T02:54:18.058Z,4.50
2023-12-14T02:56:44.788Z,4.50
2023-12-14T02:59:12.223Z,4.50
2023-12-14T03:01:39.607Z,4.30
2023-12-14T03:04:07.786Z,4.50
2023-12-14T03:06:34.508Z,4.40
2023-12-14T03:09:01.307Z,4.50
2023-12-14T03:11:28.102Z,4.50
2023-12-14T03:16:23.099Z,4.20
2023-12-14T03:18:53.515Z,4.30
2023-12-14T03:21:20.336Z,4.40
2023-12-14T03:23:47.175Z,4.50
2023-12-14T03:26:13.982Z,4.30
2023-12-14T03:28:40.766Z,4.40
2023-12-14T03:31:07.539Z,4.40
2023-12-14T03:33:34.987Z,4.40
2023-12-14T03:36:02.715Z,4.30
2023-12-14T03:38:29.437Z,4.00
2023-12-14T03:40:56.432Z,4.30
2023-12-14T03:43:23.202Z,4.40
2023-12-14T03:45:49.879Z,4.40
2023-12-14T03:48:16.790Z,4.40
2023-12-14T03:50:44.284Z,4.30
2023-12-14T03:53:10.996Z,4.30
2023-12-14T03:55:37.765Z,4.20
2023-12-14T03:58:04.582Z,4.20
2023-12-14T04:00:31.376Z,4.40
2023-12-14T04:02:58.250Z,4.30
2023-12-14T04:05:25.355Z,4.50
2023-12-14T04:07:52.906Z,4.70
2023-12-14T04:10:19.717Z,4.10
2023-12-14T04:12:46.537Z,4.40
2023-12-14T04:15:13.350Z,4.30
2023-12-14T04:17:40.312Z,4.50
2023-12-14T04:20:08.259Z,4.30
2023-12-14T04:22:35.920Z,4.40
2023-12-14T04:25:03.706Z,4.30
2023-12-14T04:27:30.526Z,4.30
2023-12-14T04:29:57.190Z,4.90
2023-12-14T04:32:23.867Z,4.20
2023-12-14T04:34:50.594Z,4.10
2023-12-14T04:37:17.441Z,4.30
2023-12-14T04:39:44.159Z,4.40
2023-12-14T04:42:11.618Z,4.30
2023-12-14T04:44:38.363Z,4.30
2023-12-14T04:47:05.421Z,4.40
2023-12-14T04:49:32.188Z,4.50
2023-12-14T04:51:58.864Z,4.50
2023-12-14T04:54:25.657Z,4.50
2023-12-14T04:56:52.349Z,4.30
2023-12-14T04:59:19.715Z,4.50
2023-12-14T05:01:46.597Z,4.50
2023-12-14T05:04:13.406Z,4.50
2023-12-14T05:06:40.602Z,4.60
2023-12-14T05:09:07.461Z,4.50
2023-12-14T05:11:34.236Z,3.90
2023-12-14T05:14:00.956Z,4.50
2023-12-14T05:16:28.534Z,4.00
2023-12-14T05:18:55.666Z,3.70
2023-12-14T05:21:22.423Z,4.50
2023-12-14T05:23:49.172Z,4.50
2023-12-14T05:26:16.095Z,4.40
2023-12-14T05:28:43.085Z,4.30
2023-12-14T05:33:38.859Z,3.90
2023-12-14T05:36:08.991Z,4.20
2023-12-14T05:38:36.111Z,4.50
2023-12-14T05:41:02.882Z,4.60
2023-12-14T05:43:29.663Z,4.50
2023-12-14T05:45:56.380Z,4.50
2023-12-14T05:48:23.248Z,4.50
2023-12-14T05:50:52.813Z,4.60
2023-12-14T05:53:19.571Z,3.70
2023-12-14T05:55:46.726Z,4.50
2023-12-14T05:58:13.480Z,4.60
2023-12-14T06:00:41.043Z,4.60
2023-12-14T06:03:07.862Z,4.50
2023-12-14T06:05:34.686Z,4.40
2023-12-14T06:08:02.145Z,4.40
2023-12-14T06:10:29.339Z,4.40
2023-12-14T06:12:56.104Z,4.60
2023-12-14T06:15:22.878Z,4.60
2023-12-14T06:17:50.579Z,4.30
2023-12-14T06:20:17.532Z,4.30
2023-12-14T06:22:44.401Z,4.50
2023-12-14T06:25:11.811Z,4.50
2023-12-14T06:27:38.518Z,4.60
2023-12-14T06:30:06.067Z,4.20
2023-12-14T06:32:33.164Z,4.50
2023-12-14T06:35:00.352Z,4.60
2023-12-14T06:37:27.064Z,4.50
2023-12-14T06:39:53.768Z,4.60
2023-12-14T06:42:21.648Z,4.70
2023-12-14T06:44:48.339Z,4.60
2023-12-14T06:47:15.142Z,4.50
2023-12-14T06:49:41.883Z,4.50
2023-12-14T06:52:09.537Z,4.60
2023-12-14T06:57:03.959Z,4.50
2023-12-14T06:59:31.608Z,4.60
2023-12-14T07:01:58.426Z,4.70
2023-12-14T07:04:25.481Z,5.30
2023-12-14T07:06:52.446Z,4.70
2023-12-14T07:09:19.390Z,4.80
2023-12-14T07:11:47.039Z,4.70
2023-12-14T07:14:15.378Z,4.70
2023-12-14T07:16:43.038Z,4.40
2023-12-14T07:19:11.207Z,4.50
2023-12-14T07:21:38.205Z,4.50
2023-12-14T07:24:05.379Z,4.60
2023-12-14T07:26:32.229Z,4.70
2023-12-14T07:29:27.398Z,4.70
2023-12-14T07:31:54.879Z,4.60
2023-12-14T07:34:22.009Z,4.40
2023-12-14T07:36:48.988Z,4.60
2023-12-14T07:39:16.334Z,4.60
2023-12-14T07:41:43.112Z,4.60
2023-12-14T07:44:09.926Z,4.60
2023-12-14T07:46:39.957Z,4.70
2023-12-14T07:49:07.446Z,4.70
2023-12-14T07:51:34.519Z,4.70
2023-12-14T07:54:01.214Z,4.50
2023-12-14T07:56:28.429Z,4.70
2023-12-14T07:58:55.421Z,4.60
2023-12-14T08:01:22.293Z,4.70
2023-12-14T08:03:49.216Z,4.70
2023-12-14T08:06:16.895Z,4.60
2023-12-14T08:08:44.270Z,4.50
2023-12-14T08:11:11.133Z,4.80
2023-12-14T08:13:38.986Z,4.90
2023-12-14T08:16:06.233Z,4.80
2023-12-14T08:18:33.050Z,4.90
2023-12-14T08:20:59.976Z,4.70
2023-12-14T08:23:28.098Z,5.10
2023-12-14T08:25:57.593Z,4.70
2023-12-14T08:28:24.304Z,4.60
2023-12-14T08:30:51.018Z,4.70
2023-12-14T08:33:17.927Z,4.40
2023-12-14T08:35:44.665Z,4.80
2023-12-14T08:38:11.565Z,4.70
2023-12-14T08:40:40.232Z,4.60
2023-12-14T08:43:06.985Z,4.70
2023-12-14T08:45:33.760Z,4.80
2023-12-14T08:48:00.631Z,4.40
2023-12-14T08:50:27.504Z,4.90
2023-12-14T08:52:55.789Z,4.80
2023-12-14T08:55:22.705Z,4.80
2023-12-14T08:57:51.005Z,4.90
2023-12-14T09:00:18.906Z,4.90
2023-12-14T09:02:46.379Z,4.40
2023-12-14T09:05:15.887Z,4.80
2023-12-14T09:07:44.387Z,4.90
2023-12-14T09:10:11.271Z,5.00
2023-12-14T09:12:39.030Z,5.00
2023-12-14T09:15:07.703Z,5.00
2023-12-14T09:17:37.276Z,5.10
2023-12-14T09:20:06.336Z,5.00
2023-12-14T09:22:33.462Z,5.00
2023-12-14T09:25:00.218Z,5.10
2023-12-14T09:27:27.098Z,5.00
2023-12-14T09:29:53.858Z,4.00
2023-12-14T09:32:21.330Z,5.10
2023-12-14T09:34:48.070Z,5.00
2023-12-14T09:37:15.002Z,4.50
2023-12-14T09:39:41.719Z,4.90
2023-12-14T09:42:08.774Z,5.00
2023-12-14T09:44:37.348Z,4.90
2023-12-14T09:47:05.210Z,4.80
2023-12-14T09:49:33.630Z,5.00
2023-12-14T09:52:00.591Z,4.90
2023-12-14T09:54:28.459Z,4.90
2023-12-14T09:56:55.743Z,5.00
2023-12-14T09:59:22.813Z,5.10
2023-12-14T10:01:49.687Z,4.70
2023-12-14T10:04:17.939Z,4.90
2023-12-14T10:06:46.440Z,4.60
2023-12-14T10:09:16.268Z,5.00
2023-12-14T10:11:44.113Z,4.90
2023-12-14T10:14:20.649Z,5.30
2023-12-14T10:16:48.810Z,5.00
2023-12-14T10:19:17.579Z,4.40
2023-12-14T10:21:46.860Z,4.90
2023-12-14T10:24:15.642Z,4.80
2023-12-14T10:26:46.057Z,4.80
2023-12-14T10:29:12.833Z,4.90
2023-12-14T10:31:39.609Z,4.80
2023-12-14T10:34:06.418Z,4.90
2023-12-14T10:36:33.579Z,4.90
2023-12-14T10:39:03.162Z,4.80
2023-12-14T10:41:32.828Z,5.00
2023-12-14T10:44:18.933Z,5.00
2023-12-14T10:46:50.729Z,5.00
2023-12-14T10:49:18.175Z,4.90
2023-12-14T10:51:47.166Z,4.70
2023-12-14T10:54:17.106Z,4.80
2023-12-14T10:56:43.965Z,5.00
2023-12-14T10:59:10.708Z,4.80
2023-12-14T11:01:39.818Z,5.10
2023-12-14T11:04:07.894Z,5.00
2023-12-14T11:06:38.493Z,4.90
2023-12-14T11:09:07.877Z,5.30
2023-12-14T11:11:57.524Z,5.20
2023-12-14T11:14:25.339Z,5.10
2023-12-14T11:16:55.608Z,5.00
2023-12-14T11:19:30.048Z,5.10
2023-12-14T11:22:15.878Z,6.70
2023-12-14T11:24:44.382Z,5.30
2023-12-14T11:27:12.919Z,5.20
2023-12-14T11:29:42.091Z,5.30
2023-12-14T11:32:08.682Z,5.40
2023-12-14T11:34:35.423Z,5.40
2023-12-14T11:37:02.162Z,5.50
2023-12-14T11:39:31.467Z,5.40
2023-12-14T11:42:01.686Z,5.30
2023-12-14T11:44:29.278Z,5.40
2023-12-14T11:46:56.165Z,5.30
2023-12-14T11:49:27.023Z,5.40
2023-12-14T11:51:55.203Z,5.40
2023-12-14T11:54:22.059Z,4.90
2023-12-14T11:56:49.095Z,5.30
2023-12-14T11:59:17.729Z,5.40
2023-12-14T12:01:56.361Z,4.30
2023-12-14T12:04:23.735Z,5.20
2023-12-14T12:06:51.409Z,5.20
2023-12-14T12:09:35.374Z,5.30
2023-12-14T12:12:02.115Z,5.40
2023-12-14T12:14:29.395Z,5.30
2023-12-14T12:16:56.899Z,5.30
2023-12-14T12:19:24.177Z,5.40
2023-12-14T12:21:50.969Z,5.20
2023-12-14T12:24:26.746Z,5.20
2023-12-14T12:26:54.597Z,5.40
2023-12-14T12:29:21.551Z,5.30
2023-12-14T12:31:48.413Z,5.30
2023-12-14T12:34:16.237Z,5.40
2023-12-14T12:36:43.022Z,5.40
2023-12-14T12:39:09.854Z,5.40
2023-12-14T12:41:37.801Z,5.40
2023-12-14T12:44:06.480Z,5.50
2023-12-14T12:46:33.944Z,5.10
2023-12-14T12:49:01.307Z,5.40
2023-12-14T12:51:30.006Z,5.30
2023-12-14T12:56:39.405Z,5.20
2023-12-14T12:59:08.698Z,5.10
2023-12-14T13:01:36.338Z,5.30
2023-12-14T13:04:04.989Z,5.10
2023-12-14T13:06:32.364Z,5.20
2023-12-14T13:08:59.109Z,4.90
2023-12-14T13:11:26.016Z,5.10
2023-12-14T13:13:52.793Z,5.10
2023-12-14T13:16:19.510Z,5.40
2023-12-14T13:18:46.536Z,4.80
2023-12-14T13:21:14.325Z,5.10
2023-12-14T13:23:42.256Z,4.90
2023-12-14T13:26:09.484Z,5.10
2023-12-14T13:28:36.473Z,5.00
2023-12-14T13:31:03.425Z,5.00
2023-12-14T13:33:30.267Z,4.80
2023-12-14T13:35:56.983Z,5.00
2023-12-14T13:38:23.988Z,5.00
2023-12-14T13:40:51.739Z,4.90
2023-12-14T13:43:18.497Z,5.00
2023-12-14T13:45:47.953Z,5.00
2023-12-14T13:48:16.133Z,5.10
2023-12-14T13:50:43.010Z,5.10
2023-12-14T13:53:09.807Z,5.10
2023-12-14T13:55:36.579Z,5.20
2023-12-14T13:58:04.128Z,5.00
2023-12-14T14:00:31.102Z,5.10
2023-12-14T14:02:58.200Z,5.10
2023-12-14T14:07:52.664Z,4.80
2023-12-14T14:10:20.255Z,5.00
2023-12-14T14:12:47.292Z,5.10
2023-12-14T14:15:15.101Z,5.10
2023-12-14T14:17:42.378Z,5.00
2023-12-14T14:20:10.409Z,5.10
2023-12-14T14:22:38.027Z,5.10
2023-12-14T14:25:06.601Z,5.20
2023-12-14T14:27:33.526Z,4.80
2023-12-14T14:30:00.832Z,5.00
2023-12-14T14:32:28.516Z,4.90
2023-12-14T14:34:57.085Z,5.00
2023-12-14T14:37:23.806Z,4.80
2023-12-14T14:39:50.564Z,4.50
2023-12-14T14:42:17.284Z,4.90
2023-12-14T14:44:44.093Z,4.90
2023-12-14T14:47:10.903Z,4.80
2023-12-14T14:49:38.580Z,4.50
2023-12-14T14:52:05.918Z,4.90
2023-12-14T14:54:32.617Z,5.00
2023-12-14T14:56:59.569Z,4.90
2023-12-14T14:59:27.215Z,4.80
2023-12-14T15:01:55.897Z,5.00
2023-12-14T15:04:22.701Z,5.00
2023-12-14T15:06:50.100Z,4.70
2023-12-14T15:09:16.815Z,4.50
2023-12-14T15:11:43.512Z,5.00
2023-12-14T15:14:10.322Z,4.30
2023-12-14T15:16:38.464Z,4.70
2023-12-14T15:19:05.233Z,4.30
2023-12-14T15:21:32.004Z,4.90
2023-12-14T15:23:59.374Z,4.90
2023-12-14T15:26:29.698Z,4.90
2023-12-14T15:28:56.592Z,4.90
2023-12-14T15:31:23.365Z,4.80
2023-12-14T15:33:50.208Z,4.90
2023-12-14T15:38:46.437Z,4.80
2023-12-14T15:41:13.984Z,4.70
2023-12-14T15:43:40.841Z,5.00
2023-12-14T15:46:08.035Z,3.30
2023-12-14T15:48:35.771Z,4.90
2023-12-14T15:51:06.487Z,5.00
2023-12-14T15:53:35.387Z,5.00
2023-12-14T15:56:02.442Z,5.00
2023-12-14T15:58:29.850Z,5.10
2023-12-14T16:00:56.795Z,5.00
2023-12-14T16:03:24.104Z,5.00
2023-12-14T16:08:18.327Z,4.80
2023-12-14T16:10:47.771Z,5.10
2023-12-14T16:13:14.639Z,4.90
2023-12-14T16:15:42.190Z,4.90
2023-12-14T16:18:10.241Z,4.90
2023-12-14T16:20:37.080Z,5.00
2023-12-14T16:23:04.183Z,5.00
2023-12-14T16:25:30.921Z,4.90
2023-12-14T16:27:57.761Z,4.90
2023-12-14T16:30:24.527Z,4.90
2023-12-14T16:32:52.733Z,5.10
2023-12-14T16:35:20.056Z,5.00
2023-12-14T16:37:46.877Z,4.90
2023-12-14T16:40:14.665Z,5.00
2023-12-14T16:42:41.868Z,4.50
2023-12-14T16:45:11.321Z,4.80
2023-12-14T16:47:38.231Z,4.70
2023-12-14T16:50:09.618Z,4.90
2023-12-14T16:52:36.741Z,4.80
2023-12-14T16:55:04.154Z,5.00
2023-12-14T16:57:30.873Z,4.90
2023-12-14T16:59:57.304Z,4.90
2023-12-14T17:02:24.268Z,5.10
2023-12-14T17:04:51.101Z,5.00
2023-12-14T17:07:18.676Z,4.40
2023-12-14T17:09:45.394Z,4.40
2023-12-14T17:12:12.122Z,4.50
2023-12-14T17:14:41.096Z,4.90
2023-12-14T17:17:07.911Z,4.90
2023-12-14T17:19:34.835Z,4.80
2023-12-14T17:22:01.805Z,4.80
2023-12-14T17:24:29.229Z,4.50
2023-12-14T17:26:55.972Z,4.70
2023-12-14T17:29:22.750Z,4.70
2023-12-14T17:31:49.606Z,4.80
2023-12-14T17:34:18.731Z,4.80
2023-12-14T17:36:45.461Z,4.80
2023-12-14T17:39:13.250Z,4.80
2023-12-14T17:41:40.594Z,4.80
2023-12-14T17:46:34.579Z,4.50
2023-12-14T17:49:03.768Z,4.70
2023-12-14T17:51:31.993Z,4.80
2023-12-14T17:53:58.782Z,4.80
2023-12-14T17:56:25.543Z,4.60
2023-12-14T17:58:52.944Z,4.80
2023-12-14T18:01:19.838Z,4.70
2023-12-14T18:03:46.589Z,4.70
2023-12-14T18:06:15.102Z,4.60
2023-12-14T18:08:41.861Z,4.70
2023-12-14T18:11:08.622Z,4.80
2023-12-14T18:13:35.536Z,4.50
2023-12-14T18:16:03.329Z,4.50
2023-12-14T18:18:30.110Z,4.60
2023-12-14T18:20:57.059Z,4.70
2023-12-14T18:23:24.108Z,4.70
2023-12-14T18:25:51.075Z,4.70
2023-12-14T18:28:18.244Z,4.70
2023-12-14T18:30:45.091Z,4.70
2023-12-14T18:33:13.506Z,4.60
2023-12-14T18:35:40.452Z,4.60
2023-12-14T18:38:08.131Z,4.40
2023-12-14T18:40:34.908Z,4.60
2023-12-14T18:43:01.775Z,4.30
2023-12-14T18:45:28.662Z,4.20
2023-12-14T18:47:55.511Z,4.40
2023-12-14T18:50:22.993Z,4.50
2023-12-14T18:52:50.059Z,4.20
2023-12-14T18:55:17.095Z,4.50
2023-12-14T18:57:46.945Z,4.50
2023-12-14T19:00:14.308Z,4.40
2023-12-14T19:02:41.212Z,4.60
2023-12-14T19:05:08.937Z,4.50
2023-12-14T19:07:37.749Z,4.20
2023-12-14T19:10:07.859Z,4.60
2023-12-14T19:12:35.022Z,4.40
2023-12-14T19:15:02.211Z,4.50
2023-12-14T19:17:29.320Z,4.20
2023-12-14T19:19:58.408Z,4.40
2023-12-14T19:22:25.367Z,4.50
2023-12-14T19:24:53.005Z,4.60
2023-12-14T19:27:19.769Z,4.50
2023-12-14T19:29:46.526Z,4.60
2023-12-14T19:32:13.864Z,4.50
2023-12-14T19:34:41.742Z,4.40
2023-12-14T19:37:08.596Z,4.50
2023-12-14T19:39:35.741Z,4.50
2023-12-14T19:42:04.092Z,4.50
2023-12-14T19:44:30.918Z,4.50
2023-12-14T19:46:57.809Z,4.50
2023-12-14T19:49:24.675Z,4.40
2023-12-14T19:51:51.633Z,4.50
2023-12-14T19:54:18.731Z,4.40
2023-12-14T19:56:46.193Z,4.40
2023-12-14T19:59:14.394Z,4.50
2023-12-14T20:01:41.694Z,4.50
2023-12-14T20:04:10.685Z,4.50
2023-12-14T20:06:38.343Z,4.40
2023-12-14T20:09:06.256Z,4.40
2023-12-14T20:11:33.193Z,3.90
2023-12-14T20:14:00.071Z,4.50
2023-12-14T20:16:27.665Z,4.40
2023-12-14T20:18:54.777Z,4.50
2023-12-14T20:21:22.059Z,4.40
2023-12-14T20:23:49.168Z,4.50
2023-12-14T20:26:22.834Z,4.20
2023-12-14T20:28:49.864Z,4.40
2023-12-14T20:31:16.597Z,4.10
2023-12-14T20:33:44.136Z,4.50
2023-12-14T20:36:11.281Z,4.60
2023-12-14T20:38:38.126Z,4.60
2023-12-14T20:41:05.301Z,4.60
2023-12-14T20:43:32.209Z,4.60
2023-12-14T20:45:59.183Z,4.70
2023-12-14T20:48:26.231Z,4.50
2023-12-14T20:50:55.426Z,4.50
2023-12-14T20:53:23.020Z,4.50
2023-12-14T20:55:49.959Z,4.60
2023-12-14T20:58:16.764Z,4.40
2023-12-14T21:03:11.642Z,4.40
2023-12-14T21:05:45.664Z,4.60
2023-12-14T21:08:15.711Z,4.40
2023-12-14T21:10:42.756Z,4.70
2023-12-14T21:13:10.004Z,4.70
2023-12-14T21:15:36.770Z,4.70
2023-12-14T21:18:04.028Z,4.60
2023-12-14T21:20:30.881Z,4.00
2023-12-14T21:22:57.919Z,4.50
2023-12-14T21:25:37.314Z,4.60
2023-12-14T21:28:04.632Z,4.40
2023-12-14T21:30:31.401Z,4.60
2023-12-14T21:32:58.205Z,4.60
2023-12-14T21:35:25.153Z,4.60
2023-12-14T21:37:51.958Z,4.60
2023-12-14T21:40:20.459Z,4.70
2023-12-14T21:42:48.041Z,4.70
2023-12-14T21:45:14.805Z,4.70
2023-12-14T21:47:42.281Z,4.40
2023-12-14T21:50:09.932Z,4.60
2023-12-14T21:52:36.740Z,4.60
2023-12-14T21:55:04.157Z,4.60
2023-12-14T21:57:31.017Z,4.60
2023-12-14T21:59:59.291Z,4.60
2023-12-14T22:02:26.081Z,4.80
2023-12-14T22:04:52.983Z,4.50
2023-12-14T22:07:19.941Z,4.60
2023-12-14T22:09:46.923Z,4.50
2023-12-14T22:12:14.051Z,4.70
2023-12-14T22:14:40.910Z,4.60
2023-12-14T22:17:09.385Z,4.60
2023-12-14T22:19:36.681Z,4.10
2023-12-14T22:22:03.810Z,4.60
2023-12-14T22:24:30.574Z,4.50
2023-12-14T22:26:57.504Z,4.50
2023-12-14T22:29:24.362Z,4.40
2023-12-14T22:31:51.176Z,4.60
2023-12-14T22:34:18.655Z,4.50
2023-12-14T22:36:45.513Z,4.50
2023-12-14T22:39:13.034Z,4.70
2023-12-14T22:41:39.774Z,4.50
2023-12-14T22:44:07.555Z,4.90
2023-12-14T22:46:34.436Z,4.60
2023-12-14T22:49:01.236Z,4.50
2023-12-14T22:51:28.737Z,4.60
2023-12-14T22:53:55.527Z,4.60
2023-12-14T22:56:24.065Z,4.50
2023-12-14T22:58:54.030Z,4.50
2023-12-14T23:01:30.265Z,4.50
2023-12-14T23:03:57.113Z,4.30
2023-12-14T23:06:23.938Z,4.40
2023-12-14T23:08:51.608Z,4.20
2023-12-14T23:11:18.785Z,3.70
2023-12-14T23:13:45.883Z,4.30
2023-12-14T23:16:13.424Z,4.10
2023-12-14T23:18:40.255Z,4.30
2023-12-14T23:21:07.650Z,4.40
2023-12-14T23:23:34.492Z,4.40
2023-12-14T23:26:02.055Z,4.60
2023-12-14T23:28:28.887Z,4.20
2023-12-14T23:30:55.678Z,4.30
2023-12-14T23:33:22.634Z,4.20
2023-12-14T23:35:51.030Z,3.90
2023-12-14T23:40:45.686Z,4.40
2023-12-14T23:43:13.464Z,4.40
2023-12-14T23:45:41.119Z,4.50
2023-12-14T23:48:07.961Z,4.50
2023-12-14T23:50:36.316Z,4.20
2023-12-14T23:53:03.097Z,3.70
2023-12-14T23:55:30.087Z,4.60
2023-12-14T23:57:56.809Z,4.50
